createdAt,value
2023-01-19T00:00:52.145Z,7.96
2023-01-19T00:03:18.872Z,7.90
2023-01-19T00:05:45.590Z,7.88
2023-01-19T00:08:15.414Z,7.94
2023-01-19T00:10:43.352Z,7.83
2023-01-19T00:13:09.990Z,7.98
2023-01-19T00:15:36.830Z,8.02
2023-01-19T00:18:03.578Z,7.89
2023-01-19T00:20:32.813Z,7.98
2023-01-19T00:22:59.994Z,7.91
2023-01-19T00:25:27.098Z,7.79
2023-01-19T00:27:53.871Z,7.82
2023-01-19T00:30:20.616Z,7.68
2023-01-19T00:32:47.299Z,7.47
2023-01-19T00:35:13.940Z,7.47
2023-01-19T00:37:40.593Z,7.54
2023-01-19T00:40:07.590Z,7.43
2023-01-19T00:42:40.193Z,7.60
2023-01-19T00:45:14.658Z,7.54
2023-01-19T00:47:41.476Z,7.60
2023-01-19T00:50:11.892Z,7.69
2023-01-19T00:52:41.592Z,7.79
2023-01-19T00:55:08.653Z,7.77
2023-01-19T00:57:35.319Z,7.73
2023-01-19T01:00:02.026Z,7.82
2023-01-19T01:02:28.975Z,7.91
2023-01-19T01:04:56.742Z,7.82
2023-01-19T01:07:24.588Z,7.79
2023-01-19T01:09:51.271Z,7.81
2023-01-19T01:12:17.931Z,7.78
2023-01-19T01:14:44.596Z,7.86
2023-01-19T01:17:11.652Z,7.72
2023-01-19T01:19:38.583Z,7.61
2023-01-19T01:22:05.569Z,7.86
2023-01-19T01:24:32.722Z,7.71
2023-01-19T01:26:59.501Z,7.64
2023-01-19T01:29:26.655Z,7.70
2023-01-19T01:31:53.373Z,7.82
2023-01-19T01:34:20.017Z,7.84
2023-01-19T01:36:46.688Z,7.70
2023-01-19T01:39:13.370Z,7.65
2023-01-19T01:41:40.013Z,7.79
2023-01-19T01:44:26.574Z,7.51
2023-01-19T01:46:53.499Z,7.63
2023-01-19T01:49:20.165Z,7.49
2023-01-19T01:51:48.454Z,7.42
2023-01-19T01:54:21.791Z,7.40
2023-01-19T01:56:50.101Z,7.26
2023-01-19T01:59:25.842Z,7.37
2023-01-19T02:02:13.352Z,7.41
2023-01-19T02:04:43.385Z,7.52
2023-01-19T02:07:30.846Z,7.61
2023-01-19T02:10:15.987Z,7.57
2023-01-19T02:13:01.787Z,7.69
2023-01-19T02:15:28.637Z,7.55
2023-01-19T02:17:55.255Z,7.31
2023-01-19T02:20:24.459Z,7.44
2023-01-19T02:22:51.831Z,7.39
2023-01-19T02:25:19.454Z,7.31
2023-01-19T02:27:46.129Z,7.10
2023-01-19T02:30:13.478Z,7.12
2023-01-19T02:32:40.086Z,7.03
2023-01-19T02:35:07.174Z,6.98
2023-01-19T02:37:37.579Z,6.88
2023-01-19T02:40:05.314Z,6.80
2023-01-19T02:42:34.661Z,6.78
2023-01-19T02:45:06.653Z,6.58
2023-01-19T02:47:40.703Z,6.52
2023-01-19T02:50:27.322Z,6.58
2023-01-19T02:53:00.817Z,6.56
2023-01-19T02:55:29.314Z,6.53
2023-01-19T02:58:05.147Z,6.52
2023-01-19T03:00:37.714Z,6.49
2023-01-19T03:03:13.314Z,6.50
2023-01-19T03:05:39.909Z,6.45
2023-01-19T03:08:06.497Z,6.28
2023-01-19T03:10:54.132Z,6.42
2023-01-19T03:13:31.219Z,6.34
2023-01-19T03:16:00.800Z,6.34
2023-01-19T03:18:29.975Z,6.50
2023-01-19T03:20:59.941Z,6.44
2023-01-19T03:23:29.194Z,6.49
2023-01-19T03:25:57.930Z,6.58
2023-01-19T03:28:26.037Z,6.48
2023-01-19T03:31:01.723Z,6.33
2023-01-19T03:33:31.871Z,6.36
2023-01-19T03:36:03.744Z,6.30
2023-01-19T03:38:33.044Z,6.20
2023-01-19T03:41:02.329Z,6.18
2023-01-19T03:43:31.526Z,6.28
2023-01-19T03:45:58.605Z,6.28
2023-01-19T03:48:25.506Z,6.36
2023-01-19T03:50:52.709Z,6.38
2023-01-19T03:53:20.553Z,6.42
2023-01-19T03:55:48.601Z,6.46
2023-01-19T03:58:15.322Z,6.37
2023-01-19T04:00:42.340Z,6.44
2023-01-19T04:03:16.356Z,6.40
2023-01-19T04:05:44.452Z,6.47
2023-01-19T04:08:11.988Z,6.43
2023-01-19T04:10:38.973Z,6.37
2023-01-19T04:13:05.959Z,6.32
2023-01-19T04:15:32.960Z,6.48
2023-01-19T04:18:00.268Z,6.38
2023-01-19T04:20:28.291Z,6.32
2023-01-19T04:22:56.189Z,6.43
2023-01-19T04:25:22.906Z,6.36
2023-01-19T04:27:51.842Z,6.42
2023-01-19T04:30:18.543Z,6.44
2023-01-19T04:32:45.258Z,6.53
2023-01-19T04:35:11.944Z,6.50
2023-01-19T04:37:38.526Z,6.53
2023-01-19T04:40:05.478Z,6.35
2023-01-19T04:42:32.500Z,6.21
2023-01-19T04:44:59.166Z,6.26
2023-01-19T04:47:25.775Z,6.18
2023-01-19T04:49:52.421Z,6.19
2023-01-19T04:52:19.567Z,6.08
2023-01-19T04:54:46.213Z,6.20
2023-01-19T04:57:12.860Z,6.21
2023-01-19T04:59:39.536Z,6.20
2023-01-19T05:02:06.216Z,6.16
2023-01-19T05:04:32.970Z,6.14
2023-01-19T05:06:59.686Z,6.05
2023-01-19T05:09:27.220Z,6.14
2023-01-19T05:11:54.062Z,6.18
2023-01-19T05:14:20.939Z,6.13
2023-01-19T05:16:47.613Z,6.05
2023-01-19T05:19:14.199Z,5.89
2023-01-19T05:21:40.836Z,5.92
2023-01-19T05:24:07.600Z,5.98
2023-01-19T05:26:34.248Z,5.90
2023-01-19T05:29:00.880Z,5.91
2023-01-19T05:31:27.540Z,5.88
2023-01-19T05:33:54.259Z,6.04
2023-01-19T05:36:20.925Z,5.94
2023-01-19T05:38:47.516Z,5.91
2023-01-19T05:41:14.313Z,5.80
2023-01-19T05:43:40.968Z,5.91
2023-01-19T05:46:07.737Z,5.93
2023-01-19T05:48:34.408Z,5.85
2023-01-19T05:51:01.589Z,5.73
2023-01-19T05:53:28.876Z,5.75
2023-01-19T05:56:02.136Z,5.81
2023-01-19T05:58:29.213Z,5.78
2023-01-19T06:00:55.876Z,5.82
2023-01-19T06:03:22.594Z,5.83
2023-01-19T06:05:49.218Z,5.82
2023-01-19T06:08:15.897Z,5.65
2023-01-19T06:10:42.567Z,5.67
2023-01-19T06:13:11.166Z,5.55
2023-01-19T06:15:38.190Z,5.57
2023-01-19T06:18:05.008Z,5.73
2023-01-19T06:20:31.722Z,5.63
2023-01-19T06:22:58.880Z,5.72
2023-01-19T06:25:26.070Z,5.85
2023-01-19T06:27:52.691Z,5.96
2023-01-19T06:30:19.446Z,5.90
2023-01-19T06:32:46.128Z,5.92
2023-01-19T06:35:13.211Z,5.94
2023-01-19T06:37:40.260Z,5.91
2023-01-19T06:40:07.912Z,6.01
2023-01-19T06:42:35.435Z,5.87
2023-01-19T06:45:02.128Z,6.01
2023-01-19T06:47:28.810Z,6.00
2023-01-19T06:49:55.909Z,5.78
2023-01-19T06:52:22.504Z,5.82
2023-01-19T06:54:49.737Z,5.85
2023-01-19T06:57:16.526Z,5.83
2023-01-19T06:59:44.138Z,5.73
2023-01-19T07:02:26.930Z,5.85
2023-01-19T07:04:54.885Z,5.68
2023-01-19T07:07:21.529Z,5.67
2023-01-19T07:09:48.209Z,5.71
2023-01-19T07:12:14.871Z,5.78
2023-01-19T07:14:42.435Z,5.80
2023-01-19T07:17:09.205Z,5.87
2023-01-19T07:19:36.092Z,5.90
2023-01-19T07:22:03.270Z,5.83
2023-01-19T07:24:33.714Z,5.86
2023-01-19T07:27:00.457Z,5.95
2023-01-19T07:29:27.165Z,5.96
2023-01-19T07:31:56.861Z,6.08
2023-01-19T07:34:23.532Z,6.16
2023-01-19T07:36:50.184Z,6.19
2023-01-19T07:39:17.119Z,6.40
2023-01-19T07:41:43.716Z,6.40
2023-01-19T07:44:10.417Z,6.47
2023-01-19T07:46:37.061Z,6.56
2023-01-19T07:49:03.756Z,6.70
2023-01-19T07:51:30.410Z,6.81
2023-01-19T07:53:57.065Z,6.96
2023-01-19T07:56:24.583Z,7.07
2023-01-19T07:58:52.627Z,7.14
2023-01-19T08:01:19.675Z,7.09
2023-01-19T08:03:47.721Z,7.11
2023-01-19T08:06:33.630Z,7.19
2023-01-19T08:09:00.304Z,7.26
2023-01-19T08:11:26.926Z,7.39
2023-01-19T08:13:53.549Z,7.33
2023-01-19T08:16:20.236Z,7.53
2023-01-19T08:18:46.889Z,7.59
2023-01-19T08:21:13.460Z,7.78
2023-01-19T08:23:40.340Z,7.86
2023-01-19T08:26:27.550Z,8.25
2023-01-19T08:28:54.644Z,8.44
2023-01-19T08:31:24.467Z,8.87
2023-01-19T08:33:51.897Z,9.37
2023-01-19T08:36:18.743Z,9.46
2023-01-19T08:38:45.904Z,9.64
2023-01-19T08:41:12.884Z,9.63
2023-01-19T08:43:39.591Z,9.57
2023-01-19T08:46:06.372Z,9.54
2023-01-19T08:48:33.332Z,9.54
2023-01-19T08:51:00.571Z,9.02
2023-01-19T08:53:27.424Z,9.07
2023-01-19T08:55:55.538Z,9.10
2023-01-19T08:58:22.188Z,9.10
2023-01-19T09:00:49.194Z,8.72
2023-01-19T09:03:16.003Z,8.86
2023-01-19T09:05:43.983Z,8.94
2023-01-19T09:08:13.027Z,8.88
2023-01-19T09:10:44.035Z,9.15
2023-01-19T09:13:11.186Z,9.14
2023-01-19T09:15:38.323Z,9.44
2023-01-19T09:18:07.047Z,9.44
2023-01-19T09:20:36.076Z,9.18
2023-01-19T09:23:02.888Z,9.29
2023-01-19T09:25:29.681Z,9.33
2023-01-19T09:27:56.460Z,9.06
2023-01-19T09:30:23.072Z,9.13
2023-01-19T09:32:49.814Z,8.92
2023-01-19T09:35:16.582Z,8.89
2023-01-19T09:37:46.534Z,8.48
2023-01-19T09:40:14.073Z,8.39
2023-01-19T09:42:44.890Z,8.51
2023-01-19T09:45:19.032Z,8.77
2023-01-19T09:47:48.591Z,8.76
2023-01-19T09:50:36.511Z,8.68
2023-01-19T09:53:07.421Z,8.82
2023-01-19T09:55:34.155Z,8.97
2023-01-19T09:58:01.269Z,9.01
2023-01-19T10:00:28.835Z,8.90
2023-01-19T10:02:58.451Z,8.77
2023-01-19T10:05:25.309Z,8.98
2023-01-19T10:07:53.244Z,8.96
2023-01-19T10:10:20.136Z,9.23
2023-01-19T10:12:52.591Z,9.13
2023-01-19T10:15:37.801Z,9.31
2023-01-19T10:18:07.655Z,9.12
2023-01-19T10:20:43.507Z,9.40
2023-01-19T10:23:32.464Z,9.46
2023-01-19T10:26:01.333Z,9.50
2023-01-19T10:28:28.108Z,9.75
2023-01-19T10:30:55.387Z,9.80
2023-01-19T10:33:22.298Z,9.87
2023-01-19T10:35:49.017Z,9.78
2023-01-19T10:38:22.214Z,9.81
2023-01-19T10:40:51.956Z,9.81
2023-01-19T10:43:37.216Z,9.91
2023-01-19T10:46:08.253Z,10.08
2023-01-19T10:48:40.066Z,10.26
2023-01-19T10:51:07.292Z,10.14
2023-01-19T10:53:33.918Z,10.35
2023-01-19T10:56:12.249Z,10.45
2023-01-19T10:58:40.373Z,10.34
2023-01-19T11:01:13.498Z,10.71
2023-01-19T11:03:40.403Z,10.84
2023-01-19T11:06:16.029Z,10.88
2023-01-19T11:08:43.659Z,10.97
2023-01-19T11:11:12.480Z,10.99
2023-01-19T11:13:39.982Z,10.98
2023-01-19T11:16:08.414Z,11.04
2023-01-19T11:18:39.278Z,11.04
2023-01-19T11:21:13.947Z,11.13
2023-01-19T11:23:50.973Z,10.95
2023-01-19T11:26:28.905Z,11.20
2023-01-19T11:28:56.757Z,11.28
2023-01-19T11:31:29.412Z,10.86
2023-01-19T11:33:57.277Z,11.03
2023-01-19T11:36:25.991Z,11.22
2023-01-19T11:38:56.973Z,11.24
2023-01-19T11:41:28.140Z,11.41
2023-01-19T11:43:56.835Z,11.62
2023-01-19T11:46:24.401Z,11.80
2023-01-19T11:49:02.129Z,11.85
2023-01-19T11:51:34.419Z,11.96
2023-01-19T11:54:02.877Z,12.09
2023-01-19T11:56:29.667Z,12.22
2023-01-19T11:58:56.778Z,12.25
2023-01-19T12:01:34.833Z,12.47
2023-01-19T12:04:10.424Z,12.60
2023-01-19T12:06:39.512Z,12.87
2023-01-19T12:09:11.608Z,12.92
2023-01-19T12:11:44.310Z,12.73
2023-01-19T12:14:17.205Z,12.63
2023-01-19T12:16:44.763Z,12.55
2023-01-19T12:19:16.850Z,12.52
2023-01-19T12:21:44.739Z,12.48
2023-01-19T12:24:11.398Z,12.57
2023-01-19T12:26:43.928Z,12.44
2023-01-19T12:29:15.444Z,12.54
2023-01-19T12:31:43.095Z,12.50
2023-01-19T12:34:31.215Z,12.51
2023-01-19T12:37:01.203Z,12.51
2023-01-19T12:39:28.132Z,12.68
2023-01-19T12:42:24.125Z,12.56
2023-01-19T12:45:03.274Z,12.63
2023-01-19T12:47:30.056Z,12.40
2023-01-19T12:50:03.185Z,12.42
2023-01-19T12:52:51.496Z,12.31
2023-01-19T12:55:23.182Z,12.16
2023-01-19T12:57:58.514Z,12.08
2023-01-19T13:00:25.557Z,12.11
2023-01-19T13:02:55.318Z,12.08
2023-01-19T13:05:32.619Z,11.91
2023-01-19T13:08:02.921Z,12.04
2023-01-19T13:10:48.303Z,11.78
2023-01-19T13:13:18.821Z,11.74
2023-01-19T13:15:45.627Z,11.97
2023-01-19T13:18:34.103Z,11.76
2023-01-19T13:21:05.522Z,12.06
2023-01-19T13:23:47.310Z,11.93
2023-01-19T13:26:15.605Z,12.05
2023-01-19T13:28:43.379Z,11.85
2023-01-19T13:31:11.159Z,11.83
2023-01-19T13:33:49.070Z,11.54
2023-01-19T13:36:23.779Z,11.62
2023-01-19T13:38:51.454Z,11.56
2023-01-19T13:41:20.691Z,11.69
2023-01-19T13:43:48.164Z,11.99
2023-01-19T13:46:17.350Z,12.12
2023-01-19T13:48:53.785Z,12.14
2023-01-19T13:51:20.620Z,12.13
2023-01-19T13:53:54.340Z,12.30
2023-01-19T13:56:23.216Z,12.31
2023-01-19T13:59:10.429Z,12.27
2023-01-19T14:01:38.547Z,12.24
2023-01-19T14:04:05.427Z,12.27
2023-01-19T14:06:32.069Z,12.45
2023-01-19T14:09:16.631Z,12.47
2023-01-19T14:11:44.767Z,12.48
2023-01-19T14:14:24.867Z,12.58
2023-01-19T14:16:51.552Z,12.52
2023-01-19T14:19:18.145Z,12.58
2023-01-19T14:21:46.094Z,12.53
2023-01-19T14:24:19.345Z,12.58
2023-01-19T14:26:47.605Z,12.51
2023-01-19T14:29:17.055Z,12.65
2023-01-19T14:31:49.913Z,12.59
2023-01-19T14:34:29.742Z,12.46
2023-01-19T14:36:56.407Z,12.48
2023-01-19T14:39:24.559Z,12.60
2023-01-19T14:41:54.963Z,12.34
2023-01-19T14:44:40.076Z,12.51
2023-01-19T14:47:07.404Z,12.56
2023-01-19T14:49:41.901Z,12.47
2023-01-19T14:52:19.847Z,12.56
2023-01-19T14:54:47.466Z,12.50
2023-01-19T14:57:14.631Z,12.46
2023-01-19T14:59:41.550Z,12.37
2023-01-19T15:02:09.210Z,12.57
2023-01-19T15:04:35.954Z,12.59
2023-01-19T15:07:02.805Z,12.55
2023-01-19T15:09:29.502Z,12.64
2023-01-19T15:11:56.162Z,12.69
2023-01-19T15:14:22.888Z,12.65
2023-01-19T15:16:49.677Z,12.62
2023-01-19T15:19:17.004Z,12.62
2023-01-19T15:21:46.292Z,12.69
2023-01-19T15:24:14.088Z,12.76
2023-01-19T15:26:42.672Z,12.76
2023-01-19T15:29:25.461Z,12.73
2023-01-19T15:31:52.570Z,12.81
2023-01-19T15:34:19.317Z,12.82
2023-01-19T15:36:46.095Z,12.72
2023-01-19T15:39:12.684Z,12.71
2023-01-19T15:41:40.372Z,12.70
2023-01-19T15:44:07.186Z,12.59
2023-01-19T15:46:33.924Z,12.68
2023-01-19T15:49:00.591Z,12.62
2023-01-19T15:51:27.428Z,12.62
2023-01-19T15:53:54.815Z,12.58
2023-01-19T15:56:23.479Z,12.64
2023-01-19T15:58:50.629Z,12.40
2023-01-19T16:01:18.721Z,12.46
2023-01-19T16:03:46.142Z,12.40
2023-01-19T16:06:13.226Z,12.34
2023-01-19T16:08:40.149Z,12.42
2023-01-19T16:11:07.816Z,12.46
2023-01-19T16:13:34.751Z,12.47
2023-01-19T16:16:02.992Z,12.56
2023-01-19T16:18:29.603Z,12.57
2023-01-19T16:20:56.318Z,12.57
2023-01-19T16:23:22.937Z,12.50
2023-01-19T16:25:57.129Z,12.48
2023-01-19T16:28:24.040Z,12.48
2023-01-19T16:30:51.700Z,12.47
2023-01-19T16:33:18.562Z,12.33
2023-01-19T16:35:45.279Z,12.43
2023-01-19T16:38:12.007Z,12.34
2023-01-19T16:40:38.748Z,12.27
2023-01-19T16:43:05.583Z,12.13
2023-01-19T16:45:32.230Z,12.12
2023-01-19T16:47:58.878Z,12.12
2023-01-19T16:50:25.502Z,11.97
2023-01-19T16:52:55.891Z,12.04
2023-01-19T16:55:22.559Z,12.05
2023-01-19T16:57:49.167Z,12.11
2023-01-19T17:00:15.971Z,12.05
2023-01-19T17:02:43.194Z,12.04
2023-01-19T17:05:10.118Z,11.95
2023-01-19T17:07:36.878Z,12.04
2023-01-19T17:10:03.631Z,12.07
2023-01-19T17:12:32.227Z,11.95
2023-01-19T17:14:59.124Z,11.99
2023-01-19T17:17:25.787Z,12.03
2023-01-19T17:19:52.507Z,12.00
2023-01-19T17:22:19.230Z,11.96
2023-01-19T17:24:46.731Z,12.03
2023-01-19T17:27:13.334Z,12.07
2023-01-19T17:29:40.019Z,12.03
2023-01-19T17:32:06.660Z,11.99
2023-01-19T17:34:33.639Z,12.12
2023-01-19T17:37:03.159Z,12.15
2023-01-19T17:39:30.143Z,12.08
2023-01-19T17:41:56.767Z,12.14
2023-01-19T17:44:23.566Z,12.13
2023-01-19T17:46:50.329Z,12.13
2023-01-19T17:49:17.012Z,12.09
2023-01-19T17:51:43.688Z,12.07
2023-01-19T17:54:11.340Z,12.09
2023-01-19T17:56:38.813Z,12.05
2023-01-19T17:59:07.727Z,12.08
2023-01-19T18:01:37.840Z,12.14
2023-01-19T18:04:04.678Z,12.11
2023-01-19T18:06:31.363Z,12.18
2023-01-19T18:08:59.292Z,12.18
2023-01-19T18:11:26.693Z,12.21
2023-01-19T18:13:53.678Z,12.21
2023-01-19T18:16:22.213Z,12.19
2023-01-19T18:18:49.889Z,12.17
2023-01-19T18:21:17.021Z,12.21
2023-01-19T18:23:45.141Z,12.23
2023-01-19T18:26:16.460Z,12.19
2023-01-19T18:28:43.137Z,12.17
2023-01-19T18:31:11.029Z,12.16
2023-01-19T18:33:38.574Z,12.17
2023-01-19T18:36:05.549Z,12.14
2023-01-19T18:38:32.281Z,12.15
2023-01-19T18:41:06.515Z,12.15
2023-01-19T18:43:33.651Z,12.14
2023-01-19T18:46:00.264Z,12.07
2023-01-19T18:48:27.025Z,12.04
2023-01-19T18:50:54.002Z,12.09
2023-01-19T18:53:20.822Z,12.02
2023-01-19T18:55:52.176Z,12.04
2023-01-19T18:58:19.093Z,12.05
2023-01-19T19:00:45.689Z,12.01
2023-01-19T19:03:12.708Z,12.03
2023-01-19T19:05:39.546Z,11.93
2023-01-19T19:08:06.517Z,11.91
2023-01-19T19:10:33.192Z,11.92
2023-01-19T19:13:16.180Z,11.83
2023-01-19T19:15:44.419Z,11.92
2023-01-19T19:18:13.720Z,11.93
2023-01-19T19:20:42.117Z,11.87
2023-01-19T19:23:08.870Z,11.87
2023-01-19T19:25:35.553Z,11.86
2023-01-19T19:28:02.209Z,11.72
2023-01-19T19:30:28.968Z,11.73
2023-01-19T19:32:56.475Z,11.75
2023-01-19T19:35:23.949Z,11.76
2023-01-19T19:37:51.580Z,11.77
2023-01-19T19:40:18.333Z,11.82
2023-01-19T19:42:45.050Z,11.71
2023-01-19T19:45:12.133Z,11.78
2023-01-19T19:47:38.766Z,11.64
2023-01-19T19:50:05.563Z,11.67
2023-01-19T19:52:32.176Z,11.66
2023-01-19T19:54:58.808Z,11.62
2023-01-19T19:57:25.476Z,11.40
2023-01-19T19:59:52.191Z,11.49
2023-01-19T20:02:18.848Z,11.53
2023-01-19T20:04:45.678Z,11.52
2023-01-19T20:07:12.319Z,11.50
2023-01-19T20:09:38.981Z,11.37
2023-01-19T20:12:05.801Z,11.39
2023-01-19T20:14:32.447Z,11.31
2023-01-19T20:16:59.100Z,11.21
2023-01-19T20:19:25.926Z,11.33
2023-01-19T20:21:52.689Z,11.34
2023-01-19T20:24:20.286Z,11.28
2023-01-19T20:26:49.631Z,11.24
2023-01-19T20:29:16.427Z,11.16
2023-01-19T20:31:44.918Z,11.18
2023-01-19T20:34:13.064Z,11.16
2023-01-19T20:36:41.240Z,11.03
2023-01-19T20:39:12.419Z,11.15
2023-01-19T20:41:43.617Z,11.14
2023-01-19T20:44:14.213Z,11.12
2023-01-19T20:46:40.942Z,11.04
2023-01-19T20:49:07.749Z,11.09
2023-01-19T20:51:35.598Z,11.08
2023-01-19T20:54:02.324Z,10.95
2023-01-19T20:56:29.002Z,10.96
2023-01-19T20:58:55.727Z,10.86
2023-01-19T21:01:23.998Z,10.81
2023-01-19T21:03:51.074Z,10.87
2023-01-19T21:06:18.321Z,10.71
2023-01-19T21:08:45.661Z,10.74
2023-01-19T21:11:13.341Z,10.75
2023-01-19T21:13:40.391Z,10.65
2023-01-19T21:16:07.368Z,10.78
2023-01-19T21:18:34.097Z,10.74
2023-01-19T21:21:00.748Z,10.85
2023-01-19T21:23:27.695Z,10.83
2023-01-19T21:25:59.192Z,10.78
2023-01-19T21:28:29.207Z,10.76
2023-01-19T21:30:55.994Z,10.73
2023-01-19T21:33:23.222Z,10.82
2023-01-19T21:35:53.793Z,10.84
2023-01-19T21:38:21.147Z,10.77
2023-01-19T21:40:48.238Z,10.84
2023-01-19T21:43:14.949Z,10.88
2023-01-19T21:45:43.074Z,10.84
2023-01-19T21:48:10.173Z,10.84
2023-01-19T21:50:36.863Z,10.80
2023-01-19T21:53:05.899Z,10.78
2023-01-19T21:55:33.253Z,10.93
2023-01-19T21:57:59.885Z,10.97
2023-01-19T22:00:26.991Z,10.92
2023-01-19T22:03:03.469Z,10.94
2023-01-19T22:05:36.193Z,11.03
2023-01-19T22:08:09.636Z,11.07
2023-01-19T22:10:39.181Z,11.10
2023-01-19T22:13:06.751Z,11.07
2023-01-19T22:15:33.476Z,11.18
2023-01-19T22:18:00.171Z,11.17
2023-01-19T22:20:26.798Z,11.09
2023-01-19T22:22:53.473Z,11.14
2023-01-19T22:25:23.871Z,11.14
2023-01-19T22:27:50.460Z,11.22
2023-01-19T22:30:17.328Z,11.28
2023-01-19T22:32:44.725Z,11.31
2023-01-19T22:35:11.558Z,11.33
2023-01-19T22:37:38.359Z,11.37
2023-01-19T22:40:05.202Z,11.34
2023-01-19T22:42:31.889Z,11.40
2023-01-19T22:44:59.389Z,11.48
2023-01-19T22:47:26.069Z,11.48
2023-01-19T22:49:52.702Z,11.52
2023-01-19T22:52:19.364Z,11.60
2023-01-19T22:54:45.944Z,11.62
2023-01-19T22:57:12.623Z,11.61
2023-01-19T22:59:39.297Z,11.54
2023-01-19T23:02:06.099Z,11.63
2023-01-19T23:04:32.839Z,11.57
2023-01-19T23:06:59.473Z,11.48
2023-01-19T23:09:26.087Z,11.52
2023-01-19T23:11:52.999Z,11.32
2023-01-19T23:14:20.710Z,11.25
2023-01-19T23:16:56.121Z,11.39
2023-01-19T23:19:22.774Z,11.39
2023-01-19T23:21:52.955Z,11.24
2023-01-19T23:24:19.702Z,11.21
2023-01-19T23:26:46.273Z,11.14
2023-01-19T23:29:14.249Z,11.24
2023-01-19T23:31:44.175Z,11.15
2023-01-19T23:34:12.127Z,11.16
2023-01-19T23:36:39.764Z,11.16
2023-01-19T23:39:09.947Z,11.24
2023-01-19T23:41:36.801Z,11.10
2023-01-19T23:44:03.787Z,11.21
2023-01-19T23:46:30.834Z,11.13
2023-01-19T23:48:57.781Z,11.12
2023-01-19T23:51:26.496Z,11.00
2023-01-19T23:53:53.372Z,11.07
2023-01-19T23:56:21.577Z,10.98
2023-01-19T23:58:58.497Z,10.90
